Comby, Texas
Current Conditions -  °F | °C
As of 9:59 AM on Saturday 20 Dec 2014 (Local Time) from KHRL Reporting Station
Overcast Overcast  
Wind Chill: 57°   Ceiling: 700
Heat Index: 57°   Visibility: 10mi
Dew Point: 54°   Wind: 14mph
Humidity: 88%   Direction: 330°NNW
Pressure: 30.2"   Gusts: NA
Location:  26.2542°N, 97.7326°W
Report Text: KHRL 201559Z 33012KT 10SM OVC007 14/12 A3020 RMK AO2 $
Loading
Personal Weather Stations






























Interactive Weather Map New forecast layout! Learn more

10-Day Weather Forecast

Advertisements
Track Severe Weather on mobile